sensor_id;sensor_type;location;lat;lon;timestamp;temperature;humidity
54272;DHT22;40184;53.362;5.216;2023-03-08T00:00:32;3.60;63.80
54272;DHT22;40184;53.362;5.216;2023-03-08T00:02:58;3.50;95.20
54272;DHT22;40184;53.362;5.216;2023-03-08T00:05:24;3.40;99.90
54272;DHT22;40184;53.362;5.216;2023-03-08T00:07:53;3.30;99.90
54272;DHT22;40184;53.362;5.216;2023-03-08T00:10:19;3.30;99.90
54272;DHT22;40184;53.362;5.216;2023-03-08T00:12:45;3.20;99.90
54272;DHT22;40184;53.362;5.216;2023-03-08T00:15:11;3.20;99.90
54272;DHT22;40184;53.362;5.216;2023-03-08T00:17:37;3.20;99.90
54272;DHT22;40184;53.362;5.216;2023-03-08T00:20:04;3.20;99.90
54272;DHT22;40184;53.362;5.216;2023-03-08T00:22:35;3.20;99.90
54272;DHT22;40184;53.362;5.216;2023-03-08T00:25:01;3.20;99.90
54272;DHT22;40184;53.362;5.216;2023-03-08T00:27:27;3.30;99.90
54272;DHT22;40184;53.362;5.216;2023-03-08T00:29:52;3.30;99.90
54272;DHT22;40184;53.362;5.216;2023-03-08T00:32:18;3.30;99.90
54272;DHT22;40184;53.362;5.216;2023-03-08T00:34:44;3.20;99.90
54272;DHT22;40184;53.362;5.216;2023-03-08T00:37:12;3.10;99.90
54272;DHT22;40184;53.362;5.216;2023-03-08T00:39:38;3.00;99.90
54272;DHT22;40184;53.362;5.216;2023-03-08T00:42:04;2.90;99.90
54272;DHT22;40184;53.362;5.216;2023-03-08T00:44:30;2.80;99.90
54272;DHT22;40184;53.362;5.216;2023-03-08T00:46:55;2.80;99.90
54272;DHT22;40184;53.362;5.216;2023-03-08T00:49:21;2.80;99.90
54272;DHT22;40184;53.362;5.216;2023-03-08T00:51:48;2.80;99.90
54272;DHT22;40184;53.362;5.216;2023-03-08T00:54:13;2.70;99.90
54272;DHT22;40184;53.362;5.216;2023-03-08T00:56:39;2.70;99.90
54272;DHT22;40184;53.362;5.216;2023-03-08T00:59:05;2.60;99.90
54272;DHT22;40184;53.362;5.216;2023-03-08T01:01:31;2.50;99.90
54272;DHT22;40184;53.362;5.216;2023-03-08T01:03:56;2.50;99.90
54272;DHT22;40184;53.362;5.216;2023-03-08T01:06:22;2.40;99.90
54272;DHT22;40184;53.362;5.216;2023-03-08T01:08:48;2.40;99.90
54272;DHT22;40184;53.362;5.216;2023-03-08T01:11:20;2.30;99.90
54272;DHT22;40184;53.362;5.216;2023-03-08T01:13:46;2.20;1.00
54272;DHT22;40184;53.362;5.216;2023-03-08T01:16:20;2.20;1.00
54272;DHT22;40184;53.362;5.216;2023-03-08T01:18:46;2.20;1.00
54272;DHT22;40184;53.362;5.216;2023-03-08T01:21:12;2.20;1.00
54272;DHT22;40184;53.362;5.216;2023-03-08T01:23:38;2.10;1.00
54272;DHT22;40184;53.362;5.216;2023-03-08T01:26:07;2.10;1.00
54272;DHT22;40184;53.362;5.216;2023-03-08T01:28:33;2.10;1.00
54272;DHT22;40184;53.362;5.216;2023-03-08T01:31:23;2.10;1.00
54272;DHT22;40184;53.362;5.216;2023-03-08T01:33:49;2.10;1.00
54272;DHT22;40184;53.362;5.216;2023-03-08T01:36:17;2.10;1.00
54272;DHT22;40184;53.362;5.216;2023-03-08T01:38:43;2.10;1.00
54272;DHT22;40184;53.362;5.216;2023-03-08T01:41:17;2.00;1.00
54272;DHT22;40184;53.362;5.216;2023-03-08T01:43:43;2.00;1.00
54272;DHT22;40184;53.362;5.216;2023-03-08T01:46:22;2.00;1.00
54272;DHT22;40184;53.362;5.216;2023-03-08T01:51:44;2.00;1.00
54272;DHT22;40184;53.362;5.216;2023-03-08T01:54:48;2.00;1.10
54272;DHT22;40184;53.362;5.216;2023-03-08T01:57:08;2.00;2.20
54272;DHT22;40184;53.362;5.216;2023-03-08T01:59:36;1.90;16.90
54272;DHT22;40184;53.362;5.216;2023-03-08T02:02:03;2.00;40.60
54272;DHT22;40184;53.362;5.216;2023-03-08T02:04:29;2.00;38.60
54272;DHT22;40184;53.362;5.216;2023-03-08T02:06:55;2.00;33.30
54272;DHT22;40184;53.362;5.216;2023-03-08T02:09:20;2.00;39.90
54272;DHT22;40184;53.362;5.216;2023-03-08T02:11:47;2.00;17.70
54272;DHT22;40184;53.362;5.216;2023-03-08T02:14:13;2.00;8.30
54272;DHT22;40184;53.362;5.216;2023-03-08T02:16:39;2.00;1.00
54272;DHT22;40184;53.362;5.216;2023-03-08T02:19:23;2.00;1.00
54272;DHT22;40184;53.362;5.216;2023-03-08T02:21:52;2.00;1.00
54272;DHT22;40184;53.362;5.216;2023-03-08T02:24:22;2.00;1.00
54272;DHT22;40184;53.362;5.216;2023-03-08T02:26:50;2.00;1.00
54272;DHT22;40184;53.362;5.216;2023-03-08T02:29:17;2.00;1.00
54272;DHT22;40184;53.362;5.216;2023-03-08T02:31:43;2.00;1.00
54272;DHT22;40184;53.362;5.216;2023-03-08T02:34:08;2.00;1.00
54272;DHT22;40184;53.362;5.216;2023-03-08T02:36:34;2.00;1.00
54272;DHT22;40184;53.362;5.216;2023-03-08T02:39:00;1.90;1.00
54272;DHT22;40184;53.362;5.216;2023-03-08T02:41:25;1.90;1.00
54272;DHT22;40184;53.362;5.216;2023-03-08T02:43:51;1.90;1.00
54272;DHT22;40184;53.362;5.216;2023-03-08T02:46:17;1.90;1.00
54272;DHT22;40184;53.362;5.216;2023-03-08T02:48:42;1.90;1.00
54272;DHT22;40184;53.362;5.216;2023-03-08T02:51:10;1.80;1.00
54272;DHT22;40184;53.362;5.216;2023-03-08T02:53:36;1.90;1.00
54272;DHT22;40184;53.362;5.216;2023-03-08T02:56:02;1.90;1.00
54272;DHT22;40184;53.362;5.216;2023-03-08T02:58:27;1.80;1.00
54272;DHT22;40184;53.362;5.216;2023-03-08T03:00:53;1.80;1.00
54272;DHT22;40184;53.362;5.216;2023-03-08T03:03:18;1.80;1.00
54272;DHT22;40184;53.362;5.216;2023-03-08T03:05:44;1.90;1.00
54272;DHT22;40184;53.362;5.216;2023-03-08T03:08:11;1.90;99.90
54272;DHT22;40184;53.362;5.216;2023-03-08T03:10:37;1.90;99.90
54272;DHT22;40184;53.362;5.216;2023-03-08T03:13:04;1.90;99.90
54272;DHT22;40184;53.362;5.216;2023-03-08T03:15:30;1.90;99.90
54272;DHT22;40184;53.362;5.216;2023-03-08T03:17:57;1.90;99.90
54272;DHT22;40184;53.362;5.216;2023-03-08T03:20:22;1.90;99.90
54272;DHT22;40184;53.362;5.216;2023-03-08T03:22:48;1.90;99.90
54272;DHT22;40184;53.362;5.216;2023-03-08T03:25:14;1.80;99.90
54272;DHT22;40184;53.362;5.216;2023-03-08T03:27:40;1.90;99.90
54272;DHT22;40184;53.362;5.216;2023-03-08T03:30:07;1.80;99.90
54272;DHT22;40184;53.362;5.216;2023-03-08T03:32:33;1.80;99.90
54272;DHT22;40184;53.362;5.216;2023-03-08T03:34:59;1.80;99.90
54272;DHT22;40184;53.362;5.216;2023-03-08T03:37:25;1.80;99.90
54272;DHT22;40184;53.362;5.216;2023-03-08T03:39:51;1.80;99.90
54272;DHT22;40184;53.362;5.216;2023-03-08T03:42:17;1.80;99.90
54272;DHT22;40184;53.362;5.216;2023-03-08T03:44:43;1.80;99.90
54272;DHT22;40184;53.362;5.216;2023-03-08T03:47:08;1.80;99.90
54272;DHT22;40184;53.362;5.216;2023-03-08T03:49:34;1.80;99.90
54272;DHT22;40184;53.362;5.216;2023-03-08T03:52:00;1.80;99.90
54272;DHT22;40184;53.362;5.216;2023-03-08T03:54:26;1.80;99.90
54272;DHT22;40184;53.362;5.216;2023-03-08T03:56:52;1.70;99.90
54272;DHT22;40184;53.362;5.216;2023-03-08T03:59:19;1.70;99.90
54272;DHT22;40184;53.362;5.216;2023-03-08T04:01:45;1.70;99.90
54272;DHT22;40184;53.362;5.216;2023-03-08T04:04:11;1.70;99.90
54272;DHT22;40184;53.362;5.216;2023-03-08T04:06:36;1.70;99.90
54272;DHT22;40184;53.362;5.216;2023-03-08T04:09:05;1.70;99.90
54272;DHT22;40184;53.362;5.216;2023-03-08T04:11:34;1.70;99.90
54272;DHT22;40184;53.362;5.216;2023-03-08T04:14:00;1.70;99.90
54272;DHT22;40184;53.362;5.216;2023-03-08T04:16:28;1.70;99.90
54272;DHT22;40184;53.362;5.216;2023-03-08T04:19:02;1.60;99.90
54272;DHT22;40184;53.362;5.216;2023-03-08T04:21:28;1.70;99.90
54272;DHT22;40184;53.362;5.216;2023-03-08T04:23:54;1.70;99.90
54272;DHT22;40184;53.362;5.216;2023-03-08T04:26:21;1.80;99.90
54272;DHT22;40184;53.362;5.216;2023-03-08T04:28:47;1.80;99.90
54272;DHT22;40184;53.362;5.216;2023-03-08T04:31:23;1.80;99.90
54272;DHT22;40184;53.362;5.216;2023-03-08T04:33:49;1.80;99.90
54272;DHT22;40184;53.362;5.216;2023-03-08T04:36:15;1.80;99.90
54272;DHT22;40184;53.362;5.216;2023-03-08T04:38:42;1.80;99.90
54272;DHT22;40184;53.362;5.216;2023-03-08T04:41:08;1.80;99.90
54272;DHT22;40184;53.362;5.216;2023-03-08T04:43:51;1.90;99.90
54272;DHT22;40184;53.362;5.216;2023-03-08T04:46:18;1.90;99.90
54272;DHT22;40184;53.362;5.216;2023-03-08T04:48:44;1.80;99.90
54272;DHT22;40184;53.362;5.216;2023-03-08T04:51:12;1.80;99.90
54272;DHT22;40184;53.362;5.216;2023-03-08T04:53:38;1.80;99.90
54272;DHT22;40184;53.362;5.216;2023-03-08T04:56:06;1.90;99.90
54272;DHT22;40184;53.362;5.216;2023-03-08T04:58:33;1.90;99.90
54272;DHT22;40184;53.362;5.216;2023-03-08T05:00:58;2.00;99.90
54272;DHT22;40184;53.362;5.216;2023-03-08T05:03:25;2.00;99.90
54272;DHT22;40184;53.362;5.216;2023-03-08T05:05:54;2.10;99.90
54272;DHT22;40184;53.362;5.216;2023-03-08T05:08:21;2.20;99.90
54272;DHT22;40184;53.362;5.216;2023-03-08T05:10:54;2.30;1.00
54272;DHT22;40184;53.362;5.216;2023-03-08T05:13:25;2.30;1.00
54272;DHT22;40184;53.362;5.216;2023-03-08T05:15:51;2.30;1.00
54272;DHT22;40184;53.362;5.216;2023-03-08T05:18:17;2.30;1.00
54272;DHT22;40184;53.362;5.216;2023-03-08T05:20:42;2.30;1.00
54272;DHT22;40184;53.362;5.216;2023-03-08T05:23:09;2.20;1.00
54272;DHT22;40184;53.362;5.216;2023-03-08T05:25:43;2.20;1.00
54272;DHT22;40184;53.362;5.216;2023-03-08T05:28:09;2.20;1.00
54272;DHT22;40184;53.362;5.216;2023-03-08T05:30:34;2.20;1.00
54272;DHT22;40184;53.362;5.216;2023-03-08T05:33:00;2.20;1.00
54272;DHT22;40184;53.362;5.216;2023-03-08T05:35:25;2.30;1.00
54272;DHT22;40184;53.362;5.216;2023-03-08T05:37:51;2.20;1.00
54272;DHT22;40184;53.362;5.216;2023-03-08T05:40:17;2.20;1.00
54272;DHT22;40184;53.362;5.216;2023-03-08T05:42:43;2.20;1.00
54272;DHT22;40184;53.362;5.216;2023-03-08T05:45:08;2.20;1.00
54272;DHT22;40184;53.362;5.216;2023-03-08T05:47:34;2.20;1.00
54272;DHT22;40184;53.362;5.216;2023-03-08T05:50:00;2.20;1.00
54272;DHT22;40184;53.362;5.216;2023-03-08T05:52:25;2.10;6.40
54272;DHT22;40184;53.362;5.216;2023-03-08T05:54:51;2.10;27.60
54272;DHT22;40184;53.362;5.216;2023-03-08T05:57:17;2.00;47.40
54272;DHT22;40184;53.362;5.216;2023-03-08T05:59:42;2.00;71.40
54272;DHT22;40184;53.362;5.216;2023-03-08T06:02:08;2.00;96.20
54272;DHT22;40184;53.362;5.216;2023-03-08T06:04:33;1.90;99.90
54272;DHT22;40184;53.362;5.216;2023-03-08T06:06:59;2.00;99.90
54272;DHT22;40184;53.362;5.216;2023-03-08T06:09:25;1.90;99.90
54272;DHT22;40184;53.362;5.216;2023-03-08T06:11:50;1.90;99.90
54272;DHT22;40184;53.362;5.216;2023-03-08T06:14:16;1.80;99.90
54272;DHT22;40184;53.362;5.216;2023-03-08T06:16:42;1.80;99.90
54272;DHT22;40184;53.362;5.216;2023-03-08T06:19:07;1.80;99.90
54272;DHT22;40184;53.362;5.216;2023-03-08T06:21:33;1.70;99.90
54272;DHT22;40184;53.362;5.216;2023-03-08T06:23:59;1.70;99.90
54272;DHT22;40184;53.362;5.216;2023-03-08T06:26:24;1.70;99.90
54272;DHT22;40184;53.362;5.216;2023-03-08T06:28:50;1.70;99.90
54272;DHT22;40184;53.362;5.216;2023-03-08T06:31:17;1.70;99.90
54272;DHT22;40184;53.362;5.216;2023-03-08T06:33:43;1.70;99.90
54272;DHT22;40184;53.362;5.216;2023-03-08T06:36:16;1.70;99.90
54272;DHT22;40184;53.362;5.216;2023-03-08T06:38:42;1.70;99.90
54272;DHT22;40184;53.362;5.216;2023-03-08T06:41:09;1.70;99.90
54272;DHT22;40184;53.362;5.216;2023-03-08T06:43:35;1.70;99.90
54272;DHT22;40184;53.362;5.216;2023-03-08T06:46:13;1.70;99.90
54272;DHT22;40184;53.362;5.216;2023-03-08T06:48:41;1.70;99.90
54272;DHT22;40184;53.362;5.216;2023-03-08T06:51:07;1.70;99.90
54272;DHT22;40184;53.362;5.216;2023-03-08T06:53:33;1.80;99.90
54272;DHT22;40184;53.362;5.216;2023-03-08T06:56:01;1.80;99.90
54272;DHT22;40184;53.362;5.216;2023-03-08T06:58:27;1.80;99.90
54272;DHT22;40184;53.362;5.216;2023-03-08T07:00:54;1.90;99.90
54272;DHT22;40184;53.362;5.216;2023-03-08T07:03:19;1.90;99.90
54272;DHT22;40184;53.362;5.216;2023-03-08T07:05:45;1.90;99.90
54272;DHT22;40184;53.362;5.216;2023-03-08T07:08:11;1.90;99.90
54272;DHT22;40184;53.362;5.216;2023-03-08T07:10:36;2.00;99.90
54272;DHT22;40184;53.362;5.216;2023-03-08T07:13:02;2.00;99.90
54272;DHT22;40184;53.362;5.216;2023-03-08T07:15:28;2.10;99.90
54272;DHT22;40184;53.362;5.216;2023-03-08T07:17:55;2.10;1.00
54272;DHT22;40184;53.362;5.216;2023-03-08T07:20:22;2.10;1.00
54272;DHT22;40184;53.362;5.216;2023-03-08T07:22:48;2.20;1.00
54272;DHT22;40184;53.362;5.216;2023-03-08T07:25:15;2.20;1.00
54272;DHT22;40184;53.362;5.216;2023-03-08T07:27:41;2.20;1.00
54272;DHT22;40184;53.362;5.216;2023-03-08T07:30:08;2.30;1.00
54272;DHT22;40184;53.362;5.216;2023-03-08T07:32:35;2.30;1.00
54272;DHT22;40184;53.362;5.216;2023-03-08T07:35:00;2.40;1.00
54272;DHT22;40184;53.362;5.216;2023-03-08T07:37:26;2.40;1.00
54272;DHT22;40184;53.362;5.216;2023-03-08T07:39:52;2.50;1.00
54272;DHT22;40184;53.362;5.216;2023-03-08T07:42:17;2.50;1.00
54272;DHT22;40184;53.362;5.216;2023-03-08T07:44:43;2.60;1.00
54272;DHT22;40184;53.362;5.216;2023-03-08T07:47:09;2.60;1.00
54272;DHT22;40184;53.362;5.216;2023-03-08T07:49:35;2.60;1.00
54272;DHT22;40184;53.362;5.216;2023-03-08T07:52:00;2.70;1.00
54272;DHT22;40184;53.362;5.216;2023-03-08T07:54:26;2.70;1.00
54272;DHT22;40184;53.362;5.216;2023-03-08T07:56:53;2.80;1.00
54272;DHT22;40184;53.362;5.216;2023-03-08T07:59:19;2.90;1.00
54272;DHT22;40184;53.362;5.216;2023-03-08T08:01:45;2.90;1.00
54272;DHT22;40184;53.362;5.216;2023-03-08T08:04:10;3.00;1.00
54272;DHT22;40184;53.362;5.216;2023-03-08T08:06:38;3.00;1.00
54272;DHT22;40184;53.362;5.216;2023-03-08T08:09:05;3.10;1.00
54272;DHT22;40184;53.362;5.216;2023-03-08T08:11:31;3.20;1.00
54272;DHT22;40184;53.362;5.216;2023-03-08T08:13:56;3.20;1.00
54272;DHT22;40184;53.362;5.216;2023-03-08T08:16:22;3.40;1.00
54272;DHT22;40184;53.362;5.216;2023-03-08T08:18:50;3.50;1.00
54272;DHT22;40184;53.362;5.216;2023-03-08T08:21:16;3.50;1.00
54272;DHT22;40184;53.362;5.216;2023-03-08T08:23:42;3.60;1.00
54272;DHT22;40184;53.362;5.216;2023-03-08T08:26:17;3.70;1.00
54272;DHT22;40184;53.362;5.216;2023-03-08T08:28:44;3.80;1.00
54272;DHT22;40184;53.362;5.216;2023-03-08T08:31:12;3.80;99.90
54272;DHT22;40184;53.362;5.216;2023-03-08T08:33:38;3.90;99.90
54272;DHT22;40184;53.362;5.216;2023-03-08T08:36:06;3.90;99.90
54272;DHT22;40184;53.362;5.216;2023-03-08T08:38:32;4.00;99.90
54272;DHT22;40184;53.362;5.216;2023-03-08T08:41:05;3.90;99.90
54272;DHT22;40184;53.362;5.216;2023-03-08T08:43:32;4.00;99.90
54272;DHT22;40184;53.362;5.216;2023-03-08T08:45:59;3.90;99.90
54272;DHT22;40184;53.362;5.216;2023-03-08T08:48:25;3.90;1.00
54272;DHT22;40184;53.362;5.216;2023-03-08T08:50:52;3.90;1.00
54272;DHT22;40184;53.362;5.216;2023-03-08T08:53:18;4.00;1.00
54272;DHT22;40184;53.362;5.216;2023-03-08T08:55:45;4.00;99.90
54272;DHT22;40184;53.362;5.216;2023-03-08T08:58:11;4.10;99.90
54272;DHT22;40184;53.362;5.216;2023-03-08T09:00:37;4.20;99.90
54272;DHT22;40184;53.362;5.216;2023-03-08T09:03:03;4.30;99.90
54272;DHT22;40184;53.362;5.216;2023-03-08T09:05:30;4.30;99.90
54272;DHT22;40184;53.362;5.216;2023-03-08T09:07:58;4.50;99.90
54272;DHT22;40184;53.362;5.216;2023-03-08T09:10:28;4.50;99.90
54272;DHT22;40184;53.362;5.216;2023-03-08T09:12:54;4.60;99.90
54272;DHT22;40184;53.362;5.216;2023-03-08T09:15:20;4.50;99.90
54272;DHT22;40184;53.362;5.216;2023-03-08T09:17:47;4.50;99.90
54272;DHT22;40184;53.362;5.216;2023-03-08T09:20:13;4.50;99.90
54272;DHT22;40184;53.362;5.216;2023-03-08T09:22:39;4.60;99.90
54272;DHT22;40184;53.362;5.216;2023-03-08T09:25:06;4.70;99.90
54272;DHT22;40184;53.362;5.216;2023-03-08T09:27:32;4.70;99.90
54272;DHT22;40184;53.362;5.216;2023-03-08T09:29:58;4.70;99.90
54272;DHT22;40184;53.362;5.216;2023-03-08T09:32:24;4.70;99.90
54272;DHT22;40184;53.362;5.216;2023-03-08T09:34:51;4.80;98.30
54272;DHT22;40184;53.362;5.216;2023-03-08T09:37:17;4.80;92.40
54272;DHT22;40184;53.362;5.216;2023-03-08T09:39:44;4.80;34.00
54272;DHT22;40184;53.362;5.216;2023-03-08T09:42:22;4.90;14.60
54272;DHT22;40184;53.362;5.216;2023-03-08T09:47:59;5.00;1.00
54272;DHT22;40184;53.362;5.216;2023-03-08T09:50:34;5.00;12.30
54272;DHT22;40184;53.362;5.216;2023-03-08T09:53:20;5.10;1.00
54272;DHT22;40184;53.362;5.216;2023-03-08T09:56:00;5.20;1.00
54272;DHT22;40184;53.362;5.216;2023-03-08T09:58:36;5.20;1.00
54272;DHT22;40184;53.362;5.216;2023-03-08T10:04:09;5.20;1.00
54272;DHT22;40184;53.362;5.216;2023-03-08T10:09:31;5.50;99.90
54272;DHT22;40184;53.362;5.216;2023-03-08T10:12:11;5.50;99.90
54272;DHT22;40184;53.362;5.216;2023-03-08T10:14:45;5.50;99.90
54272;DHT22;40184;53.362;5.216;2023-03-08T10:17:20;5.60;99.90
54272;DHT22;40184;53.362;5.216;2023-03-08T10:19:54;5.60;99.90
54272;DHT22;40184;53.362;5.216;2023-03-08T10:22:30;5.60;99.90
54272;DHT22;40184;53.362;5.216;2023-03-08T10:27:47;5.70;99.90
54272;DHT22;40184;53.362;5.216;2023-03-08T10:30:18;5.70;99.90
54272;DHT22;40184;53.362;5.216;2023-03-08T10:32:47;5.70;99.90
54272;DHT22;40184;53.362;5.216;2023-03-08T10:35:13;5.80;99.90
54272;DHT22;40184;53.362;5.216;2023-03-08T10:37:39;5.80;99.90
54272;DHT22;40184;53.362;5.216;2023-03-08T10:40:16;5.80;99.90
54272;DHT22;40184;53.362;5.216;2023-03-08T10:42:59;5.90;99.90
54272;DHT22;40184;53.362;5.216;2023-03-08T10:45:28;5.90;99.90
54272;DHT22;40184;53.362;5.216;2023-03-08T10:48:02;5.90;99.90
54272;DHT22;40184;53.362;5.216;2023-03-08T10:50:31;6.10;99.90
54272;DHT22;40184;53.362;5.216;2023-03-08T10:53:14;6.00;99.90
54272;DHT22;40184;53.362;5.216;2023-03-08T10:55:46;6.00;99.90
54272;DHT22;40184;53.362;5.216;2023-03-08T11:00:58;5.80;99.90
54272;DHT22;40184;53.362;5.216;2023-03-08T11:03:25;5.80;99.90
54272;DHT22;40184;53.362;5.216;2023-03-08T11:05:59;5.90;99.90
54272;DHT22;40184;53.362;5.216;2023-03-08T11:08:36;6.00;99.90
54272;DHT22;40184;53.362;5.216;2023-03-08T11:11:08;5.90;99.90
54272;DHT22;40184;53.362;5.216;2023-03-08T11:13:37;6.10;99.90
54272;DHT22;40184;53.362;5.216;2023-03-08T11:21:36;6.00;1.00
54272;DHT22;40184;53.362;5.216;2023-03-08T11:24:31;6.10;1.00
54272;DHT22;40184;53.362;5.216;2023-03-08T11:30:00;6.30;1.00
54272;DHT22;40184;53.362;5.216;2023-03-08T11:35:26;6.30;99.90
54272;DHT22;40184;53.362;5.216;2023-03-08T11:44:12;6.30;99.90
54272;DHT22;40184;53.362;5.216;2023-03-08T11:47:02;6.40;99.90
54272;DHT22;40184;53.362;5.216;2023-03-08T11:49:43;6.40;99.90
54272;DHT22;40184;53.362;5.216;2023-03-08T11:52:32;6.40;99.90
54272;DHT22;40184;53.362;5.216;2023-03-08T11:57:44;6.30;99.90
54272;DHT22;40184;53.362;5.216;2023-03-08T12:03:25;6.50;99.90
54272;DHT22;40184;53.362;5.216;2023-03-08T12:05:59;6.50;99.90
54272;DHT22;40184;53.362;5.216;2023-03-08T12:11:27;7.20;99.90
54272;DHT22;40184;53.362;5.216;2023-03-08T12:13:57;7.60;99.90
54272;DHT22;40184;53.362;5.216;2023-03-08T12:16:36;7.90;99.90
54272;DHT22;40184;53.362;5.216;2023-03-08T12:32:57;8.30;99.90
54272;DHT22;40184;53.362;5.216;2023-03-08T12:35:36;8.20;99.90
54272;DHT22;40184;53.362;5.216;2023-03-08T12:41:01;8.10;99.90
54272;DHT22;40184;53.362;5.216;2023-03-08T12:43:30;8.00;99.90
54272;DHT22;40184;53.362;5.216;2023-03-08T12:56:46;8.00;99.90
54272;DHT22;40184;53.362;5.216;2023-03-08T13:01:41;7.60;99.90
54272;DHT22;40184;53.362;5.216;2023-03-08T13:06:54;7.70;99.00
54272;DHT22;40184;53.362;5.216;2023-03-08T13:09:29;7.80;99.80
54272;DHT22;40184;53.362;5.216;2023-03-08T13:12:19;8.00;92.10
54272;DHT22;40184;53.362;5.216;2023-03-08T13:15:22;8.10;98.60
54272;DHT22;40184;53.362;5.216;2023-03-08T13:33:38;7.60;86.60
54272;DHT22;40184;53.362;5.216;2023-03-08T13:36:23;7.70;91.40
54272;DHT22;40184;53.362;5.216;2023-03-08T13:39:01;7.70;97.80
54272;DHT22;40184;53.362;5.216;2023-03-08T13:41:38;7.60;95.00
54272;DHT22;40184;53.362;5.216;2023-03-08T13:44:15;7.30;66.10
54272;DHT22;40184;53.362;5.216;2023-03-08T13:46:43;7.10;85.50
54272;DHT22;40184;53.362;5.216;2023-03-08T13:49:25;6.90;99.90
54272;DHT22;40184;53.362;5.216;2023-03-08T13:52:03;6.70;99.90
54272;DHT22;40184;53.362;5.216;2023-03-08T13:54:37;6.60;98.30
54272;DHT22;40184;53.362;5.216;2023-03-08T13:57:21;6.50;54.80
54272;DHT22;40184;53.362;5.216;2023-03-08T13:59:49;6.40;25.40
54272;DHT22;40184;53.362;5.216;2023-03-08T14:02:19;6.30;8.60
54272;DHT22;40184;53.362;5.216;2023-03-08T14:04:45;6.30;38.80
54272;DHT22;40184;53.362;5.216;2023-03-08T14:07:22;6.40;54.40
54272;DHT22;40184;53.362;5.216;2023-03-08T14:09:48;6.30;15.70
54272;DHT22;40184;53.362;5.216;2023-03-08T14:12:19;6.30;38.90
54272;DHT22;40184;53.362;5.216;2023-03-08T14:14:50;6.40;59.80
54272;DHT22;40184;53.362;5.216;2023-03-08T14:17:22;6.30;92.80
54272;DHT22;40184;53.362;5.216;2023-03-08T14:19:56;6.30;28.10
54272;DHT22;40184;53.362;5.216;2023-03-08T14:22:23;6.20;1.00
54272;DHT22;40184;53.362;5.216;2023-03-08T14:24:53;6.30;1.00
54272;DHT22;40184;53.362;5.216;2023-03-08T14:29:46;6.40;1.00
54272;DHT22;40184;53.362;5.216;2023-03-08T14:37:33;6.20;1.00
54272;DHT22;40184;53.362;5.216;2023-03-08T14:42:45;6.20;99.90
54272;DHT22;40184;53.362;5.216;2023-03-08T14:45:39;6.30;1.00
54272;DHT22;40184;53.362;5.216;2023-03-08T14:50:53;6.20;99.90
54272;DHT22;40184;53.362;5.216;2023-03-08T14:53:28;6.10;99.90
54272;DHT22;40184;53.362;5.216;2023-03-08T14:55:55;6.20;99.90
54272;DHT22;40184;53.362;5.216;2023-03-08T14:58:24;6.10;99.90
54272;DHT22;40184;53.362;5.216;2023-03-08T15:00:54;6.00;99.90
54272;DHT22;40184;53.362;5.216;2023-03-08T15:03:19;5.90;99.90
54272;DHT22;40184;53.362;5.216;2023-03-08T15:05:45;5.90;99.90
54272;DHT22;40184;53.362;5.216;2023-03-08T15:08:12;5.90;99.90
54272;DHT22;40184;53.362;5.216;2023-03-08T15:10:39;5.90;1.00
54272;DHT22;40184;53.362;5.216;2023-03-08T15:13:09;5.90;1.00
54272;DHT22;40184;53.362;5.216;2023-03-08T15:15:35;5.90;1.00
54272;DHT22;40184;53.362;5.216;2023-03-08T15:18:01;5.90;1.00
54272;DHT22;40184;53.362;5.216;2023-03-08T15:20:27;5.80;1.00
54272;DHT22;40184;53.362;5.216;2023-03-08T15:22:58;5.90;1.00
54272;DHT22;40184;53.362;5.216;2023-03-08T15:25:28;5.80;1.00
54272;DHT22;40184;53.362;5.216;2023-03-08T15:27:54;5.70;1.00
54272;DHT22;40184;53.362;5.216;2023-03-08T15:30:22;5.70;1.00
54272;DHT22;40184;53.362;5.216;2023-03-08T15:32:47;5.70;1.00
54272;DHT22;40184;53.362;5.216;2023-03-08T15:35:14;5.70;1.00
54272;DHT22;40184;53.362;5.216;2023-03-08T15:37:41;5.70;48.10
54272;DHT22;40184;53.362;5.216;2023-03-08T15:40:15;5.70;19.00
54272;DHT22;40184;53.362;5.216;2023-03-08T15:42:41;5.60;48.30
54272;DHT22;40184;53.362;5.216;2023-03-08T15:45:08;5.60;86.80
54272;DHT22;40184;53.362;5.216;2023-03-08T15:47:35;5.60;86.80
54272;DHT22;40184;53.362;5.216;2023-03-08T15:50:01;5.60;80.60
54272;DHT22;40184;53.362;5.216;2023-03-08T15:52:28;5.60;71.10
54272;DHT22;40184;53.362;5.216;2023-03-08T15:54:54;5.40;27.50
54272;DHT22;40184;53.362;5.216;2023-03-08T15:57:19;5.40;48.20
54272;DHT22;40184;53.362;5.216;2023-03-08T15:59:45;5.40;51.10
54272;DHT22;40184;53.362;5.216;2023-03-08T16:02:15;5.30;98.40
54272;DHT22;40184;53.362;5.216;2023-03-08T16:04:42;5.20;8.00
54272;DHT22;40184;53.362;5.216;2023-03-08T16:07:16;5.30;21.80
54272;DHT22;40184;53.362;5.216;2023-03-08T16:09:42;5.20;18.60
54272;DHT22;40184;53.362;5.216;2023-03-08T16:12:08;5.10;16.40
54272;DHT22;40184;53.362;5.216;2023-03-08T16:14:34;5.10;42.00
54272;DHT22;40184;53.362;5.216;2023-03-08T16:17:01;5.10;67.70
54272;DHT22;40184;53.362;5.216;2023-03-08T16:19:33;5.10;90.70
54272;DHT22;40184;53.362;5.216;2023-03-08T16:22:00;5.10;26.80
54272;DHT22;40184;53.362;5.216;2023-03-08T16:24:26;5.00;23.50
54272;DHT22;40184;53.362;5.216;2023-03-08T16:26:52;4.90;20.40
54272;DHT22;40184;53.362;5.216;2023-03-08T16:29:19;4.90;36.60
54272;DHT22;40184;53.362;5.216;2023-03-08T16:31:44;4.90;41.10
54272;DHT22;40184;53.362;5.216;2023-03-08T16:34:10;4.90;99.90
54272;DHT22;40184;53.362;5.216;2023-03-08T16:36:36;4.90;99.90
54272;DHT22;40184;53.362;5.216;2023-03-08T16:39:04;4.90;99.90
54272;DHT22;40184;53.362;5.216;2023-03-08T16:41:35;4.80;99.90
54272;DHT22;40184;53.362;5.216;2023-03-08T16:44:02;4.80;99.90
54272;DHT22;40184;53.362;5.216;2023-03-08T16:46:28;4.70;99.90
54272;DHT22;40184;53.362;5.216;2023-03-08T16:48:54;4.80;99.90
54272;DHT22;40184;53.362;5.216;2023-03-08T16:51:23;4.80;99.90
54272;DHT22;40184;53.362;5.216;2023-03-08T16:53:53;4.70;99.90
54272;DHT22;40184;53.362;5.216;2023-03-08T16:56:22;4.70;99.90
54272;DHT22;40184;53.362;5.216;2023-03-08T16:58:47;4.70;99.90
54272;DHT22;40184;53.362;5.216;2023-03-08T17:01:15;4.70;99.90
54272;DHT22;40184;53.362;5.216;2023-03-08T17:03:41;4.60;99.90
54272;DHT22;40184;53.362;5.216;2023-03-08T17:06:08;4.60;99.90
54272;DHT22;40184;53.362;5.216;2023-03-08T17:08:34;4.60;99.90
54272;DHT22;40184;53.362;5.216;2023-03-08T17:11:00;4.60;99.90
54272;DHT22;40184;53.362;5.216;2023-03-08T17:13:28;4.60;99.90
54272;DHT22;40184;53.362;5.216;2023-03-08T17:15:54;4.60;99.90
54272;DHT22;40184;53.362;5.216;2023-03-08T17:18:20;4.50;99.90
54272;DHT22;40184;53.362;5.216;2023-03-08T17:20:49;4.50;99.90
54272;DHT22;40184;53.362;5.216;2023-03-08T17:23:16;4.50;48.90
54272;DHT22;40184;53.362;5.216;2023-03-08T17:25:42;4.40;2.80
54272;DHT22;40184;53.362;5.216;2023-03-08T17:28:08;4.50;37.60
54272;DHT22;40184;53.362;5.216;2023-03-08T17:30:35;4.50;99.90
54272;DHT22;40184;53.362;5.216;2023-03-08T17:33:01;4.50;99.90
54272;DHT22;40184;53.362;5.216;2023-03-08T17:35:26;4.50;99.90
54272;DHT22;40184;53.362;5.216;2023-03-08T17:37:52;4.50;99.90
54272;DHT22;40184;53.362;5.216;2023-03-08T17:40:18;4.50;99.90
54272;DHT22;40184;53.362;5.216;2023-03-08T17:42:44;4.40;99.90